Time;durP1;ratioP1;P1;durP2;ratioP2;P2;SDS_P1;SDS_P2;PMS_P1;PMS_P2;Temp;Humidity;BMP_temperature;BMP_pressure;BME280_temperature;BME280_humidity;BME280_pressure;Samples;Min_cycle;Max_cycle;Signal;HPM_P1;HPM_P2
2021/12/07 00:02:18;;;;;;;55.30;36.10;;;;;;;4.26;88.10;96336.90;107878;1273;59832;-74
2021/12/07 00:04:47;;;;;;;56.20;35.50;;;;;;;4.27;88.25;96332.84;108079;1272;70841;-72
2021/12/07 00:07:17;;;;;;;48.70;32.40;;;;;;;4.29;88.13;96331.88;107899;1275;69719;-72
2021/12/07 00:09:49;;;;;;;49.80;33.30;;;;;;;4.30;88.08;96336.45;107916;1272;69494;-74
2021/12/07 00:12:19;;;;;;;45.30;29.20;;;;;;;4.30;88.11;96335.27;108064;1272;60204;-75
2021/12/07 00:14:48;;;;;;;58.10;36.00;;;;;;;4.30;87.97;96341.30;108056;1272;59741;-68
2021/12/07 00:17:18;;;;;;;;;;;;;;;4.29;87.94;96339.84;108132;1272;72049;-73
2021/12/07 00:19:47;;;;;;;41.50;26.50;;;;;;;4.27;87.93;96339.12;108044;1272;68621;-70
2021/12/07 00:22:16;;;;;;;46.90;28.70;;;;;;;4.27;87.70;96338.55;108110;1272;68472;-73
2021/12/07 00:24:46;;;;;;;51.10;31.50;;;;;;;4.28;87.78;96343.85;107951;1272;59787;-71
2021/12/07 00:27:16;;;;;;;46.60;28.20;;;;;;;4.27;87.95;96339.77;108061;1275;59741;-72
2021/12/07 00:29:45;;;;;;;30.50;18.90;;;;;;;4.27;87.60;96343.58;107945;1275;72174;-68
2021/12/07 00:32:30;;;;;;;;;;;;;;;4.28;87.47;96343.31;107991;1273;68041;-74
2021/12/07 00:35:21;;;;;;;51.30;32.60;;;;;;;4.28;87.40;96343.83;108070;1275;68492;-67
2021/12/07 00:37:56;;;;;;;70.40;41.40;;;;;;;4.25;87.82;96345.21;108130;1273;59770;-73
2021/12/07 00:40:26;;;;;;;64.10;39.20;;;;;;;4.20;88.18;96352.48;108142;1272;59763;-73
2021/12/07 00:42:56;;;;;;;64.10;39.50;;;;;;;4.16;88.19;96351.68;107704;1272;565309;-68
2021/12/07 00:45:25;;;;;;;53.70;31.20;;;;;;;4.13;88.37;96349.80;107991;1273;68140;-73
2021/12/07 00:47:55;;;;;;;51.50;35.30;;;;;;;4.12;88.08;96350.09;108099;1270;69107;-74
2021/12/07 00:50:26;;;;;;;39.40;26.10;;;;;;;4.11;87.93;96342.54;107995;1273;59722;-73
2021/12/07 00:52:57;;;;;;;40.00;26.80;;;;;;;4.13;87.94;96337.78;107894;1274;59725;-75
2021/12/07 00:55:31;;;;;;;34.90;22.70;;;;;;;4.15;88.05;96336.58;108122;1273;71580;-74
2021/12/07 00:58:12;;;;;;;36.60;22.90;;;;;;;4.19;87.93;96331.88;108071;1274;67891;-73
2021/12/07 01:00:42;;;;;;;;;;;;;;;4.22;87.71;96326.99;107941;1275;69307;-69
2021/12/07 01:03:13;;;;;;;26.70;17.90;;;;;;;4.23;87.65;96325.88;108045;1272;59772;-73
2021/12/07 01:05:49;;;;;;;31.80;20.80;;;;;;;4.26;87.49;96325.55;108097;1272;59729;-74
2021/12/07 01:25:10;;;;;;;42.90;26.70;;;;;;;4.27;87.79;96295.77;108077;1273;67857;-72
2021/12/07 01:27:40;;;;;;;;;;;;;;;4.28;87.83;96292.61;108028;1272;68455;-73
2021/12/07 01:30:18;;;;;;;34.10;23.40;;;;;;;4.30;87.68;96288.70;108078;1272;59713;-73
2021/12/07 01:33:08;;;;;;;37.10;24.70;;;;;;;4.31;87.20;96288.26;108088;1272;59771;-70
2021/12/07 01:38:34;;;;;;;39.50;26.30;;;;;;;4.30;87.14;96281.10;108012;1275;68648;-73
2021/12/07 01:47:21;;;;;;;55.10;32.90;;;;;;;4.18;87.90;96271.01;108086;1272;59793;-73
2021/12/07 02:00:30;;;;;;;46.90;28.00;;;;;;;4.19;87.35;96263.38;107943;1272;59780;-74
2021/12/07 02:03:00;;;;;;;43.50;27.80;;;;;;;4.17;87.79;96261.26;108054;1275;70407;-74
2021/12/07 02:05:30;;;;;;;57.40;34.20;;;;;;;4.16;87.95;96263.05;107981;1275;67513;-73
2021/12/07 02:08:00;;;;;;;46.70;28.90;;;;;;;4.15;88.29;96260.56;107965;1275;69470;-74
2021/12/07 02:10:31;;;;;;;43.40;27.80;;;;;;;4.14;88.34;96259.56;107854;1275;59760;-75
2021/12/07 02:13:19;;;;;;;31.20;21.10;;;;;;;4.12;88.40;96259.52;108047;1272;59741;-72
2021/12/07 02:15:49;;;;;;;38.90;24.20;;;;;;;4.14;88.37;96259.05;107977;1275;71582;-74
2021/12/07 02:18:20;;;;;;;32.20;21.20;;;;;;;4.16;88.39;96256.17;107939;1272;67763;-75
2021/12/07 02:20:51;;;;;;;30.40;19.70;;;;;;;4.19;88.05;96254.58;108066;1272;69350;-74
2021/12/07 02:23:21;;;;;;;31.80;20.80;;;;;;;4.21;88.02;96249.64;107927;1272;59792;-73
2021/12/07 02:25:51;;;;;;;;;;;;;;;4.23;87.95;96250.36;108080;1272;59697;-73
2021/12/07 02:28:22;;;;;;;30.40;19.90;;;;;;;4.23;87.99;96246.36;108067;1272;71632;-74
2021/12/07 02:30:53;;;;;;;29.40;18.80;;;;;;;4.24;88.03;96247.70;108014;1273;68601;-74
2021/12/07 02:33:28;;;;;;;21.60;12.00;;;;;;;4.25;88.01;96245.38;108106;1273;69360;-66
2021/12/07 02:35:58;;;;;;;16.50;10.80;;;;;;;4.26;87.55;96241.84;108087;1273;59734;-72
2021/12/07 02:38:28;;;;;;;18.40;12.70;;;;;;;4.28;87.60;96243.46;108002;1272;59699;-72
2021/12/07 02:40:58;;;;;;;16.20;9.80;;;;;;;4.28;87.48;96239.30;108072;1272;70544;-73
2021/12/07 02:43:28;;;;;;;21.70;14.00;;;;;;;4.29;87.30;96241.82;108001;1274;68614;-71
2021/12/07 02:45:59;;;;;;;23.00;14.10;;;;;;;4.29;87.44;96245.30;108031;1275;69355;-68
2021/12/07 02:48:29;;;;;;;25.30;15.30;;;;;;;4.26;87.41;96245.16;108045;1272;59789;-70
2021/12/07 02:51:00;;;;;;;24.20;15.60;;;;;;;4.24;87.55;96246.30;107911;1273;59704;-67
2021/12/07 02:53:36;;;;;;;23.10;15.50;;;;;;;4.23;87.30;96245.36;107999;1272;71579;-73
2021/12/07 02:56:07;;;;;;;15.30;10.60;;;;;;;4.22;87.29;96245.94;108006;1272;67889;-67
2021/12/07 02:58:43;;;;;;;22.90;15.60;;;;;;;4.22;87.13;96240.05;108086;1275;69247;-73
2021/12/07 03:01:22;;;;;;;15.70;10.30;;;;;;;4.18;87.89;96240.85;107928;1273;59779;-68
2021/12/07 03:04:11;;;;;;;19.70;13.20;;;;;;;4.18;87.72;96241.36;107961;1275;59733;-73
2021/12/07 03:26:30;;;;;;;18.10;12.00;;;;;;;4.16;87.66;96211.69;107999;1274;68638;-71
2021/12/07 03:29:00;;;;;;;17.10;12.00;;;;;;;4.16;87.85;96212.20;107694;1277;59714;-73
2021/12/07 03:31:31;;;;;;;14.10;9.90;;;;;;;4.16;87.71;96212.05;108159;1271;59723;-70
2021/12/07 03:34:02;;;;;;;13.70;10.30;;;;;;;4.16;87.56;96211.14;107952;1275;71603;-70
2021/12/07 03:36:33;;;;;;;11.30;7.90;;;;;;;4.18;87.37;96208.58;108008;1272;67819;-73
2021/12/07 03:39:05;;;;;;;13.20;9.40;;;;;;;4.21;87.25;96209.63;108017;1272;69460;-68
2021/12/07 03:41:34;;;;;;;9.60;6.60;;;;;;;4.23;87.04;96210.48;108092;1271;59700;-73
2021/12/07 03:44:04;;;;;;;8.80;6.30;;;;;;;4.25;86.90;96207.77;107774;1275;59773;-71
2021/12/07 03:46:35;;;;;;;11.80;8.10;;;;;;;4.25;86.91;96208.81;108019;1275;71557;-71
2021/12/07 03:49:05;;;;;;;13.80;9.40;;;;;;;4.27;86.68;96211.13;108079;1272;68602;-73
2021/12/07 03:51:35;;;;;;;12.70;8.50;;;;;;;4.28;86.52;96209.67;107988;1271;68624;-73
2021/12/07 03:54:05;;;;;;;;;;;;;;;4.29;86.51;96210.94;108020;1272;59771;-72
2021/12/07 03:56:34;;;;;;;10.70;7.40;;;;;;;4.29;86.70;96207.54;108101;1272;59720;-71
2021/12/07 03:59:04;;;;;;;14.40;10.80;;;;;;;4.28;86.72;96204.62;108096;1272;71573;-72
2021/12/07 04:01:34;;;;;;;11.80;9.90;;;;;;;4.28;86.84;96206.90;107942;1272;69112;-74
2021/12/07 04:04:04;;;;;;;;;;;;;;;4.28;86.76;96209.67;107984;1272;69439;-73
2021/12/07 04:06:34;;;;;;;9.90;7.10;;;;;;;4.28;86.89;96210.70;108035;1272;59799;-71
2021/12/07 04:09:04;;;;;;;12.30;8.70;;;;;;;4.27;86.67;96207.81;107821;1275;59652;-73
2021/12/07 04:11:34;;;;;;;14.50;11.00;;;;;;;4.27;86.33;96207.27;108052;1272;71573;-70
2021/12/07 04:14:06;;;;;;;12.40;9.60;;;;;;;4.27;86.32;96203.32;108125;1272;68784;-73
2021/12/07 04:16:36;;;;;;;12.40;9.20;;;;;;;4.28;86.10;96202.23;108129;1272;67532;-74
2021/12/07 04:19:06;;;;;;;9.60;6.80;;;;;;;4.28;86.21;96201.04;108067;1274;59797;-73
2021/12/07 04:21:35;;;;;;;10.90;7.90;;;;;;;4.28;86.04;96200.20;108079;1272;59768;-73
2021/12/07 04:24:06;;;;;;;11.70;8.10;;;;;;;4.27;86.02;96201.94;108129;1272;70705;-68
2021/12/07 04:26:36;;;;;;;10.70;7.40;;;;;;;4.27;86.02;96201.25;108101;1272;68662;-66
2021/12/07 04:29:05;;;;;;;;;;;;;;;4.26;85.90;96197.38;108076;1272;69344;-71
2021/12/07 04:31:35;;;;;;;7.90;6.50;;;;;;;4.24;85.95;96197.87;108082;1272;60190;-71
2021/12/07 04:34:04;;;;;;;9.60;6.70;;;;;;;4.21;85.91;96196.50;108036;1275;59723;-71
2021/12/07 04:36:34;;;;;;;9.20;6.80;;;;;;;4.22;85.77;96199.04;108126;1272;71651;-71
2021/12/07 04:39:04;;;;;;;;;;;;;;;4.18;85.81;96197.55;107981;1272;68788;-72
2021/12/07 04:41:33;;;;;;;8.90;7.30;;;;;;;4.15;85.93;96196.08;108048;1271;69260;-75
2021/12/07 04:44:04;;;;;;;8.70;6.40;;;;;;;4.13;85.98;96193.04;108090;1272;59728;-73
2021/12/07 04:46:43;;;;;;;10.70;7.70;;;;;;;4.13;85.79;96194.10;107963;1275;59777;-73
2021/12/07 04:57:51;;;;;;;9.80;7.70;;;;;;;4.06;86.15;96193.18;107550;1278;59833;-73
2021/12/07 05:00:27;;;;;;;13.60;10.90;;;;;;;4.05;86.33;96192.90;107854;1275;59812;-71
2021/12/07 05:03:00;;;;;;;7.70;5.10;;;;;;;4.03;86.53;96191.17;108142;1271;71650;-73
2021/12/07 05:05:36;;;;;;;11.40;8.90;;;;;;;4.02;86.23;96193.08;108088;1272;67819;-73
2021/12/07 05:08:09;;;;;;;11.10;9.40;;;;;;;3.99;86.14;96197.94;108103;1272;69458;-73
2021/12/07 05:11:32;;;;;;;8.00;6.40;;;;;;;3.99;86.46;96200.06;108096;1272;59790;-74
2021/12/07 05:13:36;;;;;;;11.00;8.10;;;;;;;3.97;86.60;96202.91;108024;1272;59754;-72
2021/12/07 05:24:16;;;;;;;9.20;7.10;;;;;;;3.93;86.53;96201.30;108072;1272;59732;-73
2021/12/07 05:37:55;;;;;;;8.50;6.80;;;;;;;3.94;86.10;96185.85;107893;1272;59753;-72
2021/12/07 05:40:33;;;;;;;7.70;6.20;;;;;;;3.94;85.98;96188.98;107944;1272;59729;-72
2021/12/07 05:43:04;;;;;;;9.60;7.00;;;;;;;3.93;85.91;96187.98;108097;1271;72090;-74
2021/12/07 05:45:36;;;;;;;9.10;6.40;;;;;;;3.93;86.03;96185.44;107990;1272;67909;-71
2021/12/07 05:48:07;;;;;;;8.40;6.40;;;;;;;3.91;85.94;96190.77;107781;1275;69485;-72
2021/12/07 05:50:40;;;;;;;8.90;6.50;;;;;;;3.91;85.89;96190.06;108080;1272;59702;-72
2021/12/07 05:53:10;;;;;;;8.90;6.70;;;;;;;3.90;85.89;96185.48;108092;1271;59684;-71
2021/12/07 05:55:40;;;;;;;9.90;7.10;;;;;;;3.89;86.05;96181.72;108136;1272;70715;-66
2021/12/07 05:58:15;;;;;;;8.70;6.00;;;;;;;3.89;86.23;96178.98;107955;1274;68066;-66
2021/12/07 06:00:46;;;;;;;7.80;5.60;;;;;;;3.89;86.02;96175.00;108109;1272;68637;-72
2021/12/07 06:03:15;;;;;;;12.00;9.20;;;;;;;3.87;86.08;96174.27;108083;1271;59751;-70
2021/12/07 06:05:45;;;;;;;8.80;5.90;;;;;;;3.82;85.92;96169.92;108135;1272;59748;-71
2021/12/07 06:08:14;;;;;;;12.10;9.10;;;;;;;3.82;86.20;96168.55;107816;1275;71582;-73
2021/12/07 06:10:44;;;;;;;9.30;7.80;;;;;;;3.86;87.60;96172.59;108000;1272;67008;-72
2021/12/07 06:13:13;;;;;;;8.60;5.60;;;;;;;3.85;86.56;96171.27;107833;1272;69663;-72
2021/12/07 06:15:44;;;;;;;8.10;6.20;;;;;;;3.85;86.24;96172.71;108085;1272;59806;-68
2021/12/07 06:18:14;;;;;;;11.40;9.10;;;;;;;3.84;86.31;96173.81;108021;1272;59752;-70
2021/12/07 06:20:44;;;;;;;12.20;8.40;;;;;;;3.81;86.40;96181.90;108024;1272;70844;-68
2021/12/07 06:23:18;;;;;;;7.30;5.70;;;;;;;3.80;86.36;96181.44;108042;1272;68682;-73
2021/12/07 06:25:49;;;;;;;11.50;8.30;;;;;;;3.80;86.28;96180.25;108015;1273;69490;-75
2021/12/07 06:28:18;;;;;;;11.30;8.50;;;;;;;3.80;86.86;96178.20;108051;1272;59730;-74
2021/12/07 06:30:48;;;;;;;11.90;9.00;;;;;;;3.79;86.36;96179.41;108087;1271;59736;-73
2021/12/07 06:33:20;;;;;;;11.10;7.90;;;;;;;3.79;86.25;96173.56;107992;1271;70779;-74
2021/12/07 06:35:52;;;;;;;11.50;8.50;;;;;;;3.79;86.48;96178.05;107996;1274;69259;-72
2021/12/07 06:38:22;;;;;;;8.00;6.00;;;;;;;3.81;86.59;96174.16;108058;1272;69440;-71
2021/12/07 06:40:51;;;;;;;8.20;7.10;;;;;;;3.82;86.41;96174.05;107910;1272;59710;-74
2021/12/07 06:43:21;;;;;;;8.30;6.80;;;;;;;3.81;86.53;96171.92;108077;1274;59697;-73
2021/12/07 06:45:51;;;;;;;8.90;7.00;;;;;;;3.80;86.63;96171.45;108209;1272;71625;-68
2021/12/07 06:48:20;;;;;;;9.40;6.30;;;;;;;3.81;86.75;96170.69;108013;1271;68755;-72
2021/12/07 06:50:50;;;;;;;7.70;5.80;;;;;;;3.81;86.58;96169.33;108021;1271;68981;-72
2021/12/07 06:53:19;;;;;;;11.40;7.90;;;;;;;3.82;86.33;96166.67;108123;1272;59723;-74
2021/12/07 06:55:48;;;;;;;9.20;6.30;;;;;;;3.81;86.11;96166.36;108058;1272;59768;-67
2021/12/07 06:58:17;;;;;;;11.40;8.70;;;;;;;3.85;86.20;96171.84;108006;1272;71174;-70
2021/12/07 07:00:46;;;;;;;12.10;8.80;;;;;;;3.84;86.08;96172.37;108081;1272;69255;-70
2021/12/07 07:03:15;;;;;;;9.60;6.90;;;;;;;3.82;85.77;96170.83;107946;1272;70028;-68
2021/12/07 07:05:47;;;;;;;11.50;9.00;;;;;;;3.83;86.44;96170.40;108034;1272;59728;-72
2021/12/07 07:08:17;;;;;;;13.70;9.20;;;;;;;3.87;86.69;96173.56;108153;1272;59656;-72
2021/12/07 07:10:46;;;;;;;12.50;9.50;;;;;;;3.89;86.60;96170.73;108111;1272;71619;-73
2021/12/07 07:13:16;;;;;;;12.20;9.50;;;;;;;3.85;86.03;96170.59;108101;1274;69546;-71
2021/12/07 07:15:45;;;;;;;10.50;7.50;;;;;;;3.83;86.45;96175.92;107981;1273;67625;-71
2021/12/07 07:18:14;;;;;;;15.20;10.60;;;;;;;3.81;86.47;96172.57;107909;1275;59852;-73
2021/12/07 07:20:43;;;;;;;13.90;10.00;;;;;;;3.75;86.99;96169.70;108086;1271;59655;-71
2021/12/07 07:23:12;;;;;;;14.40;10.50;;;;;;;3.69;87.55;96175.47;108035;1272;72175;-72
2021/12/07 07:25:41;;;;;;;13.60;9.50;;;;;;;3.64;87.61;96174.89;108158;1272;68644;-70
2021/12/07 07:28:10;;;;;;;11.20;7.70;;;;;;;3.61;87.89;96174.45;107969;1271;68664;-73
2021/12/07 07:30:39;;;;;;;14.20;9.40;;;;;;;3.62;87.61;96179.38;108107;1272;59767;-74
2021/12/07 07:33:08;;;;;;;12.80;9.60;;;;;;;3.64;87.63;96173.00;108100;1272;59834;-73
2021/12/07 07:35:37;;;;;;;12.00;9.40;;;;;;;3.67;87.44;96174.71;108103;1272;70639;-71
2021/12/07 07:38:07;;;;;;;11.00;8.80;;;;;;;3.67;87.31;96170.76;107942;1272;68839;-73
2021/12/07 07:40:35;;;;;;;9.50;6.70;;;;;;;3.67;87.15;96169.22;108028;1272;68656;-69
2021/12/07 07:43:04;;;;;;;11.20;8.70;;;;;;;3.70;87.15;96165.89;108113;1271;59757;-71
2021/12/07 07:45:51;;;;;;;13.60;9.10;;;;;;;3.69;86.85;96164.39;108092;1272;59722;-70
2021/12/07 07:48:21;;;;;;;9.00;7.40;;;;;;;3.67;86.71;96164.92;108198;1270;70798;-67
2021/12/07 07:50:52;;;;;;;8.40;6.90;;;;;;;3.68;86.53;96168.98;108102;1271;67840;-70
2021/12/07 07:53:21;;;;;;;15.20;9.50;;;;;;;3.72;86.52;96166.96;108185;1272;68649;-74
2021/12/07 07:55:51;;;;;;;12.40;9.20;;;;;;;3.73;86.66;96169.86;108140;1271;59856;-72
2021/12/07 07:58:20;;;;;;;13.00;9.50;;;;;;;3.71;86.88;96168.58;108162;1272;59704;-69
2021/12/07 08:00:49;;;;;;;13.60;8.80;;;;;;;3.70;86.87;96172.33;108169;1271;70809;-74
2021/12/07 08:03:18;;;;;;;13.20;10.00;;;;;;;3.64;86.98;96166.11;108141;1272;68747;-73
2021/12/07 08:05:49;;;;;;;13.50;10.10;;;;;;;3.60;87.16;96162.73;108092;1272;69487;-66
2021/12/07 08:08:19;;;;;;;12.90;9.60;;;;;;;3.57;87.04;96162.77;107974;1272;59726;-67
2021/12/07 08:10:49;;;;;;;11.00;8.50;;;;;;;3.58;87.21;96164.63;108074;1271;59778;-73
2021/12/07 08:13:21;;;;;;;11.60;8.80;;;;;;;3.60;87.16;96164.69;108144;1272;71584;-74
2021/12/07 08:15:50;;;;;;;12.60;9.60;;;;;;;3.60;87.11;96160.02;107969;1272;68403;-73
2021/12/07 08:18:21;;;;;;;15.30;11.00;;;;;;;3.63;87.21;96159.62;107924;1272;69579;-68
2021/12/07 08:20:50;;;;;;;12.30;9.00;;;;;;;3.67;87.37;96161.95;108020;1271;59741;-73
2021/12/07 08:23:19;;;;;;;7.90;5.70;;;;;;;3.74;87.92;96160.13;108158;1272;59699;-69
2021/12/07 08:25:49;;;;;;;8.20;6.70;;;;;;;3.81;87.16;96161.20;108085;1272;71624;-74
2021/12/07 08:28:19;;;;;;;11.00;8.30;;;;;;;3.85;86.93;96159.21;108050;1271;68710;-75
2021/12/07 08:30:49;;;;;;;;;;;;;;;3.83;86.72;96160.89;108107;1271;70012;-69
2021/12/07 08:33:18;;;;;;;12.80;9.30;;;;;;;3.82;86.43;96158.59;108095;1271;59806;-72
2021/12/07 08:35:48;;;;;;;12.60;8.80;;;;;;;3.79;86.58;96161.65;108063;1275;59713;-68
2021/12/07 08:38:17;;;;;;;13.40;9.00;;;;;;;3.76;86.64;96163.59;107938;1273;70762;-69
2021/12/07 08:40:53;;;;;;;11.10;8.20;;;;;;;3.70;86.84;96165.73;107967;1272;69227;-70
2021/12/07 08:43:28;;;;;;;13.60;9.10;;;;;;;3.69;87.02;96165.81;107895;1269;69868;-69
2021/12/07 08:46:01;;;;;;;14.00;10.00;;;;;;;3.67;87.17;96164.41;108218;1272;59802;-72
2021/12/07 08:48:31;;;;;;;11.40;8.60;;;;;;;3.66;87.02;96154.80;108092;1272;59706;-70
2021/12/07 08:51:02;;;;;;;8.80;7.40;;;;;;;3.66;87.05;96151.16;108057;1272;71703;-72
2021/12/07 08:53:32;;;;;;;9.70;7.70;;;;;;;3.72;86.87;96153.17;108138;1272;67711;-73
2021/12/07 09:01:38;;;;;;;10.60;7.50;;;;;;;3.82;85.78;96142.16;108120;1272;59726;-73
2021/12/07 09:04:07;;;;;;;7.90;5.70;;;;;;;3.86;85.66;96140.91;108124;1272;71266;-73
2021/12/07 09:06:37;;;;;;;9.50;8.00;;;;;;;3.91;85.77;96140.53;108107;1271;68813;-72
2021/12/07 09:09:06;;;;;;;7.90;5.90;;;;;;;3.90;85.86;96138.55;108101;1270;68661;-71
2021/12/07 09:11:36;;;;;;;7.80;6.30;;;;;;;3.91;86.00;96140.08;108129;1271;59779;-73
2021/12/07 09:14:05;;;;;;;10.00;8.10;;;;;;;3.94;85.84;96141.73;107944;1272;59731;-73
2021/12/07 09:16:34;;;;;;;6.70;5.20;;;;;;;3.97;85.91;96137.73;108111;1272;71552;-67
2021/12/07 09:19:06;;;;;;;11.50;8.70;;;;;;;3.99;85.90;96135.17;108158;1271;68535;-69
2021/12/07 09:21:35;;;;;;;9.90;7.40;;;;;;;3.98;85.82;96133.02;108046;1272;70027;-68
2021/12/07 09:24:08;;;;;;;9.80;7.70;;;;;;;3.98;85.66;96129.92;108003;1271;59738;-67
2021/12/07 09:26:38;;;;;;;9.10;6.70;;;;;;;3.95;85.25;96124.30;108152;1272;59736;-71
2021/12/07 09:29:07;;;;;;;6.80;5.50;;;;;;;3.96;85.33;96124.37;108102;1272;70774;-73
2021/12/07 09:31:37;;;;;;;5.10;4.10;;;;;;;3.99;85.38;96121.38;108112;1272;68672;-72
2021/12/07 09:34:06;;;;;;;18.40;14.10;;;;;;;4.01;85.67;96120.27;107910;1273;69380;-74
2021/12/07 09:36:36;;;;;;;13.40;10.20;;;;;;;3.95;86.23;96117.73;108127;1272;59710;-73
2021/12/07 09:39:07;;;;;;;9.90;7.40;;;;;;;3.95;86.00;96115.64;108079;1272;59760;-74
2021/12/07 09:41:38;;;;;;;12.80;10.20;;;;;;;3.98;85.79;96115.80;108176;1272;71395;-69
2021/12/07 09:44:08;;;;;;;10.00;8.00;;;;;;;3.97;85.81;96117.54;108199;1271;68636;-67
2021/12/07 09:46:39;;;;;;;7.80;6.60;;;;;;;3.97;85.34;96117.20;108088;1271;69317;-67
2021/12/07 09:49:09;;;;;;;7.50;5.90;;;;;;;3.99;85.23;96118.61;108142;1269;59688;-68
2021/12/07 09:51:39;;;;;;;8.70;6.10;;;;;;;4.03;85.20;96120.24;108118;1272;59707;-71
2021/12/07 09:54:09;;;;;;;10.20;7.60;;;;;;;4.06;85.12;96116.80;108168;1270;71077;-72
2021/12/07 09:56:38;;;;;;;10.80;8.10;;;;;;;4.09;85.17;96114.52;108109;1271;68585;-73
2021/12/07 09:59:10;;;;;;;7.70;6.00;;;;;;;4.08;84.82;96114.59;107970;1271;68879;-73
2021/12/07 10:01:41;;;;;;;7.20;6.40;;;;;;;4.10;84.76;96112.58;108132;1272;59687;-73
2021/12/07 10:04:11;;;;;;;12.30;9.80;;;;;;;4.07;84.92;96113.48;108113;1272;59710;-72
2021/12/07 10:06:41;;;;;;;9.30;7.30;;;;;;;4.01;85.32;96106.59;108206;1269;70998;-74
2021/12/07 10:09:10;;;;;;;11.20;8.40;;;;;;;3.97;85.14;96105.16;108293;1269;67871;-67
2021/12/07 10:11:39;;;;;;;9.70;8.00;;;;;;;3.93;84.95;96105.08;108221;1269;69402;-69
2021/12/07 10:14:08;;;;;;;11.00;8.40;;;;;;;3.91;85.90;96100.58;108144;1272;59735;-70
2021/12/07 10:16:44;;;;;;;14.20;11.00;;;;;;;3.91;86.03;96097.85;108204;1272;59751;-66
2021/12/07 10:19:25;;;;;;;11.10;9.30;;;;;;;3.78;86.18;96096.63;108119;1272;71428;-71
2021/12/07 10:22:07;;;;;;;14.60;9.70;;;;;;;3.75;86.55;96092.83;108021;1272;67844;-69
2021/12/07 10:24:46;;;;;;;11.80;9.80;;;;;;;3.73;86.79;96094.55;108081;1272;68694;-67
2021/12/07 10:27:37;;;;;;;13.90;11.20;;;;;;;3.75;86.50;96093.75;108130;1272;59745;-68
2021/12/07 10:30:16;;;;;;;10.30;7.60;;;;;;;3.71;86.52;96092.27;108069;1272;59697;-67
2021/12/07 10:33:05;;;;;;;11.60;9.80;;;;;;;3.74;86.00;96090.52;108113;1272;71632;-73
2021/12/07 10:35:36;;;;;;;8.80;7.20;;;;;;;3.76;86.27;96085.88;108046;1272;68763;-73
2021/12/07 10:38:15;;;;;;;10.80;7.90;;;;;;;3.80;85.47;96082.88;108119;1272;69417;-74
2021/12/07 10:40:57;;;;;;;8.60;7.00;;;;;;;3.73;85.94;96084.20;108103;1271;59742;-73
2021/12/07 10:44:03;;;;;;;6.90;5.60;;;;;;;3.77;85.95;96080.80;108082;1271;59746;-74
2021/12/07 10:46:36;;;;;;;13.10;11.10;;;;;;;3.79;86.35;96083.24;107526;1278;71684;-74
2021/12/07 10:49:32;;;;;;;10.70;8.60;;;;;;;3.74;86.29;96077.92;107599;1280;68970;-68
2021/12/07 10:52:15;;;;;;;14.30;9.80;;;;;;;3.75;86.44;96078.40;107481;1279;68518;-66
2021/12/07 10:54:55;;;;;;;8.30;6.90;;;;;;;3.79;86.49;96072.27;107520;1278;59872;-67
2021/12/07 10:57:29;;;;;;;8.30;6.00;;;;;;;3.85;86.32;96070.98;107487;1278;59659;-66
2021/12/07 11:00:09;;;;;;;8.40;6.40;;;;;;;3.95;85.74;96067.71;107444;1280;71563;-67
2021/12/07 11:02:41;;;;;;;7.90;6.30;;;;;;;4.02;85.49;96067.42;107489;1280;69104;-68
2021/12/07 11:05:16;;;;;;;7.80;6.50;;;;;;;4.08;85.26;96066.85;107551;1280;68871;-72
2021/12/07 11:07:46;;;;;;;6.20;4.80;;;;;;;4.10;84.83;96062.90;107468;1279;59755;-71
2021/12/07 11:10:22;;;;;;;8.10;6.60;;;;;;;4.15;84.65;96057.45;107399;1280;59741;-70
2021/12/07 11:15:37;;;;;;;8.70;6.00;;;;;;;4.19;84.67;96045.93;107520;1280;67890;-72
2021/12/07 11:18:11;;;;;;;5.90;4.40;;;;;;;4.23;84.68;96043.79;107471;1280;69872;-68
2021/12/07 11:20:40;;;;;;;6.00;4.80;;;;;;;4.26;84.92;96045.05;107555;1280;59723;-73
2021/12/07 11:23:09;;;;;;;6.60;5.70;;;;;;;4.31;84.69;96043.55;107959;1271;59755;-71
2021/12/07 11:31:18;;;;;;;6.30;4.80;;;;;;;4.35;84.57;96043.61;108135;1271;68263;-72
2021/12/07 11:33:52;;;;;;;8.20;7.30;;;;;;;4.37;84.48;96044.15;107993;1272;59723;-72
2021/12/07 11:36:30;;;;;;;5.80;5.20;;;;;;;4.31;84.21;96039.91;108087;1272;59766;-71
2021/12/07 11:39:03;;;;;;;5.50;4.40;;;;;;;4.27;84.10;96039.68;108125;1271;70845;-72
2021/12/07 11:41:33;;;;;;;8.70;6.60;;;;;;;4.28;84.21;96042.36;108119;1272;68048;-69
2021/12/07 11:44:08;;;;;;;7.30;6.30;;;;;;;4.21;83.94;96042.67;108051;1272;69447;-73
2021/12/07 11:46:46;;;;;;;9.30;7.70;;;;;;;4.16;83.92;96043.21;108060;1272;59771;-72
2021/12/07 11:49:20;;;;;;;7.20;5.90;;;;;;;4.07;84.78;96045.17;108200;1271;59732;-66
2021/12/07 11:51:52;;;;;;;7.10;6.00;;;;;;;3.99;85.04;96042.80;108111;1271;70139;-69
2021/12/07 11:54:28;;;;;;;6.80;5.90;;;;;;;3.95;84.83;96043.90;108151;1271;68606;-73
2021/12/07 11:56:57;;;;;;;10.40;7.60;;;;;;;3.93;85.32;96045.27;108038;1271;69848;-72
2021/12/07 11:59:26;;;;;;;10.40;8.20;;;;;;;3.86;85.78;96045.77;108094;1268;59718;-68
2021/12/07 12:01:55;;;;;;;14.50;10.70;;;;;;;3.75;86.23;96044.78;108110;1271;59753;-71
2021/12/07 12:04:25;;;;;;;15.80;12.50;;;;;;;3.65;86.83;96049.45;108102;1272;71655;-66
2021/12/07 12:06:57;;;;;;;15.90;12.60;;;;;;;3.57;87.56;96046.34;108044;1271;68421;-69
2021/12/07 12:09:27;;;;;;;15.50;11.80;;;;;;;3.53;87.87;96047.44;108016;1275;69470;-71
2021/12/07 12:12:11;;;;;;;13.30;9.60;;;;;;;3.52;87.94;96047.87;108132;1272;59797;-72
2021/12/07 12:14:49;;;;;;;17.80;13.10;;;;;;;3.52;88.06;96046.46;108136;1271;59783;-69
2021/12/07 12:17:27;;;;;;;17.70;14.20;;;;;;;3.48;88.44;96042.83;108072;1271;72130;-67
2021/12/07 12:20:20;;;;;;;21.40;15.00;;;;;;;3.39;88.46;96042.86;107953;1274;68796;-67
2021/12/07 12:23:09;;;;;;;19.70;14.40;;;;;;;3.32;88.91;96044.69;107919;1272;69430;-71
2021/12/07 12:25:38;;;;;;;19.20;13.30;;;;;;;3.29;89.19;96044.36;108100;1272;59796;-67
2021/12/07 12:28:06;;;;;;;22.80;17.90;;;;;;;3.29;89.13;96040.45;108118;1269;59738;-67
2021/12/07 12:30:40;;;;;;;18.40;13.60;;;;;;;3.28;89.31;96039.64;108111;1272;71377;-70
2021/12/07 12:33:12;;;;;;;25.70;16.90;;;;;;;3.29;89.19;96040.95;107875;1272;68166;-66
2021/12/07 12:35:50;;;;;;;27.80;17.10;;;;;;;3.31;89.30;96043.40;108014;1275;69477;-71
2021/12/07 12:38:29;;;;;;;22.10;14.40;;;;;;;3.31;89.25;96042.66;108089;1271;59724;-67
2021/12/07 12:41:11;;;;;;;20.50;16.70;;;;;;;3.31;89.11;96043.93;108125;1271;59786;-66
2021/12/07 12:43:52;;;;;;;21.80;15.70;;;;;;;3.27;88.93;96046.79;108136;1271;71686;-73
2021/12/07 12:46:30;;;;;;;19.60;13.50;;;;;;;3.23;89.20;96044.94;108196;1271;68668;-73
2021/12/07 12:49:10;;;;;;;19.80;15.00;;;;;;;3.20;89.29;96048.10;108014;1271;70062;-68
2021/12/07 12:51:46;;;;;;;16.10;12.00;;;;;;;3.19;89.26;96052.14;108058;1272;59751;-67
2021/12/07 12:54:16;;;;;;;17.20;13.00;;;;;;;3.14;89.49;96055.70;107989;1275;60147;-68
2021/12/07 12:56:46;;;;;;;22.00;16.60;;;;;;;3.13;89.62;96055.91;108045;1271;71612;-72
2021/12/07 12:59:18;;;;;;;27.00;18.80;;;;;;;3.12;89.89;96059.98;108105;1272;68671;-67
2021/12/07 13:01:48;;;;;;;23.90;16.80;;;;;;;3.11;90.01;96058.48;108011;1272;69455;-66
2021/12/07 13:04:28;;;;;;;18.60;14.40;;;;;;;3.11;90.18;96059.02;108175;1271;60074;-66
2021/12/07 13:07:29;;;;;;;18.80;12.20;;;;;;;3.13;89.85;96056.98;108029;1272;59754;-66
2021/12/07 13:10:00;;;;;;;21.70;14.50;;;;;;;3.13;89.82;96065.76;108183;1270;69864;-66
2021/12/07 13:12:38;;;;;;;24.20;16.20;;;;;;;3.13;90.08;96068.34;108144;1271;67920;-66
2021/12/07 13:15:11;;;;;;;22.50;15.80;;;;;;;3.11;90.25;96066.92;108243;1272;69436;-67
2021/12/07 13:17:46;;;;;;;16.30;13.50;;;;;;;3.09;90.12;96066.86;108225;1272;59655;-68
2021/12/07 13:20:30;;;;;;;16.90;13.70;;;;;;;3.10;90.04;96067.34;108239;1271;59707;-66
2021/12/07 13:23:13;;;;;;;18.10;13.20;;;;;;;3.07;89.90;96070.45;108161;1272;71657;-67
2021/12/07 13:25:52;;;;;;;18.30;14.30;;;;;;;3.00;90.08;96070.85;108080;1271;68507;-69
2021/12/07 13:28:25;;;;;;;18.10;13.00;;;;;;;2.97;90.43;96071.20;108054;1271;69467;-69
2021/12/07 13:31:13;;;;;;;20.60;14.70;;;;;;;2.97;90.63;96070.38;108170;1272;59729;-67